Terminal Aerodrome Forecast
Issued by NWS

Home | Current Version | Previous Version | Text Only | Print | Product List | Glossary On
Versions: 1 2 3 4 5 6 7 8 9 10 11 12 13 14 15 16
000
FTUS42 KGSP 230830 AAB
TAFHKY
TAF AMD
KHKY 230830Z 2309/2406 08004KT 3SM -SHRA SCT004 OVC010
      TEMPO 2309/2313 2SM -SHRA OVC004
     FM231300 12012KT 3SM SHRA BR OVC003
     FM231700 14013G19KT 3SM +SHRA BR OVC003 PROB30 2318/2321 2SM
      TSRA BR OVC006CB
     FM232100 16012KT 4SM +SHRA BR VCTS OVC003CB WS020/16045KT
     FM240000 21008KT P6SM VCSH SCT050 BKN100
     FM240300 22006KT P6SM SCT100=

USA.gov is the U.S. government's official web portal to all federal, state and local government web resources and services.